sensor_id;sensor_type;location;lat;lon;timestamp;P1;durP1;ratioP1;P2;durP2;ratioP2
10939;SDS011;5522;42.696;23.494;2023-02-25T00:01:19;49.88;;;23.60;;
10939;SDS011;5522;42.696;23.494;2023-02-25T00:03:50;40.92;;;21.48;;
10939;SDS011;5522;42.696;23.494;2023-02-25T00:06:18;55.55;;;22.35;;
10939;SDS011;5522;42.696;23.494;2023-02-25T00:08:46;122.78;;;23.63;;
10939;SDS011;5522;42.696;23.494;2023-02-25T00:11:14;43.13;;;19.88;;
10939;SDS011;5522;42.696;23.494;2023-02-25T00:13:42;42.63;;;20.15;;
10939;SDS011;5522;42.696;23.494;2023-02-25T00:16:09;44.60;;;19.90;;
10939;SDS011;5522;42.696;23.494;2023-02-25T00:18:38;38.83;;;19.98;;
10939;SDS011;5522;42.696;23.494;2023-02-25T00:21:08;46.70;;;19.38;;
10939;SDS011;5522;42.696;23.494;2023-02-25T00:23:39;34.40;;;18.42;;
10939;SDS011;5522;42.696;23.494;2023-02-25T00:26:06;38.00;;;20.00;;
10939;SDS011;5522;42.696;23.494;2023-02-25T00:28:33;39.55;;;19.40;;
10939;SDS011;5522;42.696;23.494;2023-02-25T00:31:04;40.35;;;20.40;;
10939;SDS011;5522;42.696;23.494;2023-02-25T00:33:32;38.38;;;19.90;;
10939;SDS011;5522;42.696;23.494;2023-02-25T00:36:00;40.80;;;21.23;;
10939;SDS011;5522;42.696;23.494;2023-02-25T00:38:31;41.22;;;20.30;;
10939;SDS011;5522;42.696;23.494;2023-02-25T00:41:03;41.42;;;20.38;;
10939;SDS011;5522;42.696;23.494;2023-02-25T00:43:33;41.15;;;20.23;;
10939;SDS011;5522;42.696;23.494;2023-02-25T00:45:59;44.45;;;20.98;;
10939;SDS011;5522;42.696;23.494;2023-02-25T00:48:26;51.55;;;24.80;;
10939;SDS011;5522;42.696;23.494;2023-02-25T00:50:53;38.30;;;19.13;;
10939;SDS011;5522;42.696;23.494;2023-02-25T00:53:21;36.00;;;19.60;;
10939;SDS011;5522;42.696;23.494;2023-02-25T00:55:56;56.50;;;26.67;;
10939;SDS011;5522;42.696;23.494;2023-02-25T00:58:24;42.30;;;20.80;;
10939;SDS011;5522;42.696;23.494;2023-02-25T01:06:14;42.65;;;20.20;;
10939;SDS011;5522;42.696;23.494;2023-02-25T01:08:43;75.15;;;20.27;;
10939;SDS011;5522;42.696;23.494;2023-02-25T01:11:10;36.95;;;17.55;;
10939;SDS011;5522;42.696;23.494;2023-02-25T01:13:40;43.15;;;19.75;;
10939;SDS011;5522;42.696;23.494;2023-02-25T01:16:13;37.63;;;20.52;;
10939;SDS011;5522;42.696;23.494;2023-02-25T01:18:42;45.50;;;24.40;;
10939;SDS011;5522;42.696;23.494;2023-02-25T01:21:13;56.92;;;29.73;;
10939;SDS011;5522;42.696;23.494;2023-02-25T01:23:43;49.83;;;25.25;;
10939;SDS011;5522;42.696;23.494;2023-02-25T01:26:10;45.63;;;21.85;;
10939;SDS011;5522;42.696;23.494;2023-02-25T01:28:37;41.83;;;20.23;;
10939;SDS011;5522;42.696;23.494;2023-02-25T01:31:04;44.88;;;21.63;;
10939;SDS011;5522;42.696;23.494;2023-02-25T01:33:32;45.42;;;21.42;;
10939;SDS011;5522;42.696;23.494;2023-02-25T01:36:02;42.05;;;20.13;;
10939;SDS011;5522;42.696;23.494;2023-02-25T01:38:30;47.35;;;21.63;;
10939;SDS011;5522;42.696;23.494;2023-02-25T01:40:59;50.97;;;24.73;;
10939;SDS011;5522;42.696;23.494;2023-02-25T01:43:27;51.58;;;24.38;;
10939;SDS011;5522;42.696;23.494;2023-02-25T01:45:54;48.92;;;22.55;;
10939;SDS011;5522;42.696;23.494;2023-02-25T01:48:22;48.65;;;21.67;;
10939;SDS011;5522;42.696;23.494;2023-02-25T01:50:53;41.85;;;18.83;;
10939;SDS011;5522;42.696;23.494;2023-02-25T01:53:24;38.05;;;17.80;;
10939;SDS011;5522;42.696;23.494;2023-02-25T01:55:55;42.58;;;19.95;;
10939;SDS011;5522;42.696;23.494;2023-02-25T01:58:25;36.80;;;18.20;;
10939;SDS011;5522;42.696;23.494;2023-02-25T02:00:52;44.47;;;18.13;;
10939;SDS011;5522;42.696;23.494;2023-02-25T02:03:20;31.75;;;16.25;;
10939;SDS011;5522;42.696;23.494;2023-02-25T02:05:54;35.80;;;17.73;;
10939;SDS011;5522;42.696;23.494;2023-02-25T02:08:25;41.25;;;19.25;;
10939;SDS011;5522;42.696;23.494;2023-02-25T02:10:53;34.85;;;16.88;;
10939;SDS011;5522;42.696;23.494;2023-02-25T02:13:21;35.65;;;17.92;;
10939;SDS011;5522;42.696;23.494;2023-02-25T02:15:51;40.80;;;18.35;;
10939;SDS011;5522;42.696;23.494;2023-02-25T02:18:28;42.53;;;18.30;;
10939;SDS011;5522;42.696;23.494;2023-02-25T02:21:01;37.80;;;17.98;;
10939;SDS011;5522;42.696;23.494;2023-02-25T02:23:43;44.40;;;21.45;;
10939;SDS011;5522;42.696;23.494;2023-02-25T02:26:31;48.85;;;19.98;;
10939;SDS011;5522;42.696;23.494;2023-02-25T02:32:24;80.10;;;36.08;;
10939;SDS011;5522;42.696;23.494;2023-02-25T02:35:01;119.65;;;50.75;;
10939;SDS011;5522;42.696;23.494;2023-02-25T02:37:38;60.67;;;30.67;;
10939;SDS011;5522;42.696;23.494;2023-02-25T02:40:13;43.95;;;23.98;;
10939;SDS011;5522;42.696;23.494;2023-02-25T02:42:50;48.45;;;25.30;;
10939;SDS011;5522;42.696;23.494;2023-02-25T02:45:27;42.15;;;20.00;;
10939;SDS011;5522;42.696;23.494;2023-02-25T02:48:04;93.85;;;46.63;;
10939;SDS011;5522;42.696;23.494;2023-02-25T02:50:34;42.47;;;21.40;;
10939;SDS011;5522;42.696;23.494;2023-02-25T02:53:08;36.97;;;17.95;;
10939;SDS011;5522;42.696;23.494;2023-02-25T02:55:40;39.33;;;18.17;;
10939;SDS011;5522;42.696;23.494;2023-02-25T02:58:12;41.88;;;17.80;;
10939;SDS011;5522;42.696;23.494;2023-02-25T03:00:43;32.63;;;17.30;;
10939;SDS011;5522;42.696;23.494;2023-02-25T03:03:15;38.55;;;17.85;;
10939;SDS011;5522;42.696;23.494;2023-02-25T03:05:45;36.90;;;21.15;;
10939;SDS011;5522;42.696;23.494;2023-02-25T03:08:16;40.15;;;18.58;;
10939;SDS011;5522;42.696;23.494;2023-02-25T03:10:47;32.33;;;17.08;;
10939;SDS011;5522;42.696;23.494;2023-02-25T03:13:14;38.92;;;19.25;;
10939;SDS011;5522;42.696;23.494;2023-02-25T03:15:41;31.15;;;15.80;;
10939;SDS011;5522;42.696;23.494;2023-02-25T03:18:11;33.15;;;16.17;;
10939;SDS011;5522;42.696;23.494;2023-02-25T03:20:46;38.00;;;15.90;;
10939;SDS011;5522;42.696;23.494;2023-02-25T03:23:17;35.00;;;15.93;;
10939;SDS011;5522;42.696;23.494;2023-02-25T03:25:47;29.13;;;15.85;;
10939;SDS011;5522;42.696;23.494;2023-02-25T03:28:20;33.95;;;15.55;;
10939;SDS011;5522;42.696;23.494;2023-02-25T03:30:52;32.60;;;15.40;;
10939;SDS011;5522;42.696;23.494;2023-02-25T03:33:27;35.97;;;19.00;;
10939;SDS011;5522;42.696;23.494;2023-02-25T03:35:58;32.95;;;15.68;;
10939;SDS011;5522;42.696;23.494;2023-02-25T03:38:28;25.63;;;14.55;;
10939;SDS011;5522;42.696;23.494;2023-02-25T03:40:59;34.65;;;16.85;;
10939;SDS011;5522;42.696;23.494;2023-02-25T03:43:29;34.47;;;20.77;;
10939;SDS011;5522;42.696;23.494;2023-02-25T03:45:59;29.17;;;18.60;;
10939;SDS011;5522;42.696;23.494;2023-02-25T03:48:29;31.42;;;16.27;;
10939;SDS011;5522;42.696;23.494;2023-02-25T03:50:58;29.35;;;16.58;;
10939;SDS011;5522;42.696;23.494;2023-02-25T03:53:27;28.17;;;16.55;;
10939;SDS011;5522;42.696;23.494;2023-02-25T03:55:55;29.95;;;16.23;;
10939;SDS011;5522;42.696;23.494;2023-02-25T03:58:24;31.52;;;15.60;;
10939;SDS011;5522;42.696;23.494;2023-02-25T04:00:51;31.67;;;16.15;;
10939;SDS011;5522;42.696;23.494;2023-02-25T04:03:21;24.42;;;14.23;;
10939;SDS011;5522;42.696;23.494;2023-02-25T04:05:50;30.55;;;12.73;;
10939;SDS011;5522;42.696;23.494;2023-02-25T04:08:16;26.70;;;13.57;;
10939;SDS011;5522;42.696;23.494;2023-02-25T04:10:44;25.27;;;13.23;;
10939;SDS011;5522;42.696;23.494;2023-02-25T04:13:12;23.42;;;13.15;;
10939;SDS011;5522;42.696;23.494;2023-02-25T04:15:40;25.67;;;13.43;;
10939;SDS011;5522;42.696;23.494;2023-02-25T04:18:08;23.35;;;12.98;;
10939;SDS011;5522;42.696;23.494;2023-02-25T04:20:35;24.63;;;14.00;;
10939;SDS011;5522;42.696;23.494;2023-02-25T04:23:04;22.27;;;13.02;;
10939;SDS011;5522;42.696;23.494;2023-02-25T04:25:31;25.95;;;12.93;;
10939;SDS011;5522;42.696;23.494;2023-02-25T04:27:58;26.58;;;13.57;;
10939;SDS011;5522;42.696;23.494;2023-02-25T04:30:24;22.48;;;13.07;;
10939;SDS011;5522;42.696;23.494;2023-02-25T04:32:51;27.05;;;11.93;;
10939;SDS011;5522;42.696;23.494;2023-02-25T04:35:18;28.95;;;14.02;;
10939;SDS011;5522;42.696;23.494;2023-02-25T04:37:45;28.17;;;13.45;;
10939;SDS011;5522;42.696;23.494;2023-02-25T04:40:15;26.92;;;14.00;;
10939;SDS011;5522;42.696;23.494;2023-02-25T04:42:43;32.47;;;15.38;;
10939;SDS011;5522;42.696;23.494;2023-02-25T04:45:10;30.08;;;14.77;;
10939;SDS011;5522;42.696;23.494;2023-02-25T04:47:38;28.67;;;14.82;;
10939;SDS011;5522;42.696;23.494;2023-02-25T04:50:07;33.13;;;14.50;;
10939;SDS011;5522;42.696;23.494;2023-02-25T04:52:35;26.85;;;14.60;;
10939;SDS011;5522;42.696;23.494;2023-02-25T04:55:02;25.80;;;13.55;;
10939;SDS011;5522;42.696;23.494;2023-02-25T04:57:30;33.30;;;14.77;;
10939;SDS011;5522;42.696;23.494;2023-02-25T04:59:57;24.20;;;13.73;;
10939;SDS011;5522;42.696;23.494;2023-02-25T05:02:24;29.77;;;13.45;;
10939;SDS011;5522;42.696;23.494;2023-02-25T05:04:50;36.63;;;18.17;;
10939;SDS011;5522;42.696;23.494;2023-02-25T05:07:17;30.38;;;15.45;;
10939;SDS011;5522;42.696;23.494;2023-02-25T05:09:45;27.55;;;14.70;;
10939;SDS011;5522;42.696;23.494;2023-02-25T05:12:12;37.92;;;19.52;;
10939;SDS011;5522;42.696;23.494;2023-02-25T05:14:40;39.22;;;19.88;;
10939;SDS011;5522;42.696;23.494;2023-02-25T05:17:07;45.25;;;19.08;;
10939;SDS011;5522;42.696;23.494;2023-02-25T05:19:34;45.40;;;22.42;;
10939;SDS011;5522;42.696;23.494;2023-02-25T05:22:01;36.67;;;20.38;;
10939;SDS011;5522;42.696;23.494;2023-02-25T05:24:28;41.22;;;20.95;;
10939;SDS011;5522;42.696;23.494;2023-02-25T05:26:54;43.53;;;20.55;;
10939;SDS011;5522;42.696;23.494;2023-02-25T05:29:21;34.83;;;19.27;;
10939;SDS011;5522;42.696;23.494;2023-02-25T05:31:49;49.50;;;24.48;;
10939;SDS011;5522;42.696;23.494;2023-02-25T05:34:16;39.35;;;21.95;;
10939;SDS011;5522;42.696;23.494;2023-02-25T05:36:43;34.10;;;16.00;;
10939;SDS011;5522;42.696;23.494;2023-02-25T05:39:10;32.60;;;18.02;;
10939;SDS011;5522;42.696;23.494;2023-02-25T05:41:38;40.95;;;21.48;;
10939;SDS011;5522;42.696;23.494;2023-02-25T05:44:05;29.00;;;16.02;;
10939;SDS011;5522;42.696;23.494;2023-02-25T05:46:33;33.88;;;17.05;;
10939;SDS011;5522;42.696;23.494;2023-02-25T05:49:01;34.75;;;17.60;;
10939;SDS011;5522;42.696;23.494;2023-02-25T05:51:28;55.97;;;26.85;;
10939;SDS011;5522;42.696;23.494;2023-02-25T05:53:55;35.47;;;18.52;;
10939;SDS011;5522;42.696;23.494;2023-02-25T05:56:23;32.78;;;17.08;;
10939;SDS011;5522;42.696;23.494;2023-02-25T05:58:51;34.00;;;16.17;;
10939;SDS011;5522;42.696;23.494;2023-02-25T06:01:20;31.17;;;17.85;;
10939;SDS011;5522;42.696;23.494;2023-02-25T06:03:49;36.03;;;17.40;;
10939;SDS011;5522;42.696;23.494;2023-02-25T06:06:19;32.80;;;15.77;;
10939;SDS011;5522;42.696;23.494;2023-02-25T06:08:47;31.13;;;18.92;;
10939;SDS011;5522;42.696;23.494;2023-02-25T06:11:16;25.48;;;15.45;;
10939;SDS011;5522;42.696;23.494;2023-02-25T06:13:45;23.63;;;14.82;;
10939;SDS011;5522;42.696;23.494;2023-02-25T06:16:13;33.22;;;16.48;;
10939;SDS011;5522;42.696;23.494;2023-02-25T06:18:39;26.30;;;15.40;;
10939;SDS011;5522;42.696;23.494;2023-02-25T06:21:07;24.05;;;13.98;;
10939;SDS011;5522;42.696;23.494;2023-02-25T06:23:37;23.83;;;13.85;;
10939;SDS011;5522;42.696;23.494;2023-02-25T06:26:05;23.58;;;12.05;;
10939;SDS011;5522;42.696;23.494;2023-02-25T06:28:34;17.00;;;11.40;;
10939;SDS011;5522;42.696;23.494;2023-02-25T06:31:01;22.67;;;10.75;;
10939;SDS011;5522;42.696;23.494;2023-02-25T06:33:28;23.95;;;12.23;;
10939;SDS011;5522;42.696;23.494;2023-02-25T06:35:56;22.05;;;12.07;;
10939;SDS011;5522;42.696;23.494;2023-02-25T06:38:22;23.45;;;15.25;;
10939;SDS011;5522;42.696;23.494;2023-02-25T06:40:51;19.60;;;10.93;;
10939;SDS011;5522;42.696;23.494;2023-02-25T06:43:18;29.17;;;12.38;;
10939;SDS011;5522;42.696;23.494;2023-02-25T06:45:45;25.45;;;13.25;;
10939;SDS011;5522;42.696;23.494;2023-02-25T06:48:11;22.70;;;11.52;;
10939;SDS011;5522;42.696;23.494;2023-02-25T06:50:39;24.35;;;13.48;;
10939;SDS011;5522;42.696;23.494;2023-02-25T06:53:06;28.88;;;12.55;;
10939;SDS011;5522;42.696;23.494;2023-02-25T06:55:34;34.15;;;20.15;;
10939;SDS011;5522;42.696;23.494;2023-02-25T06:58:04;29.45;;;14.85;;
10939;SDS011;5522;42.696;23.494;2023-02-25T07:00:31;23.85;;;12.95;;
10939;SDS011;5522;42.696;23.494;2023-02-25T07:02:58;26.63;;;12.25;;
10939;SDS011;5522;42.696;23.494;2023-02-25T07:05:27;24.20;;;12.82;;
10939;SDS011;5522;42.696;23.494;2023-02-25T07:07:54;24.63;;;12.25;;
10939;SDS011;5522;42.696;23.494;2023-02-25T07:10:21;20.10;;;11.93;;
10939;SDS011;5522;42.696;23.494;2023-02-25T07:12:47;19.50;;;10.40;;
10939;SDS011;5522;42.696;23.494;2023-02-25T07:15:16;47.78;;;27.83;;
10939;SDS011;5522;42.696;23.494;2023-02-25T07:17:42;21.38;;;10.25;;
10939;SDS011;5522;42.696;23.494;2023-02-25T07:20:09;21.35;;;10.10;;
10939;SDS011;5522;42.696;23.494;2023-02-25T07:22:38;19.05;;;9.43;;
10939;SDS011;5522;42.696;23.494;2023-02-25T07:25:06;16.15;;;9.02;;
10939;SDS011;5522;42.696;23.494;2023-02-25T07:27:36;12.25;;;8.40;;
10939;SDS011;5522;42.696;23.494;2023-02-25T07:30:05;17.02;;;8.13;;
10939;SDS011;5522;42.696;23.494;2023-02-25T07:32:35;21.90;;;9.13;;
10939;SDS011;5522;42.696;23.494;2023-02-25T07:35:01;17.10;;;8.25;;
10939;SDS011;5522;42.696;23.494;2023-02-25T07:37:29;20.65;;;9.52;;
10939;SDS011;5522;42.696;23.494;2023-02-25T07:39:56;17.92;;;9.23;;
10939;SDS011;5522;42.696;23.494;2023-02-25T07:42:24;20.33;;;9.43;;
10939;SDS011;5522;42.696;23.494;2023-02-25T07:44:51;20.55;;;9.73;;
10939;SDS011;5522;42.696;23.494;2023-02-25T07:47:18;10.45;;;8.15;;
10939;SDS011;5522;42.696;23.494;2023-02-25T07:49:47;18.52;;;8.57;;
10939;SDS011;5522;42.696;23.494;2023-02-25T07:52:13;19.33;;;9.50;;
10939;SDS011;5522;42.696;23.494;2023-02-25T07:54:41;22.45;;;10.77;;
10939;SDS011;5522;42.696;23.494;2023-02-25T07:57:07;15.45;;;10.00;;
10939;SDS011;5522;42.696;23.494;2023-02-25T07:59:34;22.23;;;12.23;;
10939;SDS011;5522;42.696;23.494;2023-02-25T08:02:01;15.95;;;10.30;;
10939;SDS011;5522;42.696;23.494;2023-02-25T08:04:29;25.45;;;11.60;;
10939;SDS011;5522;42.696;23.494;2023-02-25T08:06:57;19.73;;;11.10;;
10939;SDS011;5522;42.696;23.494;2023-02-25T08:09:26;20.58;;;11.15;;
10939;SDS011;5522;42.696;23.494;2023-02-25T08:11:53;18.73;;;10.93;;
10939;SDS011;5522;42.696;23.494;2023-02-25T08:14:19;14.60;;;9.98;;
10939;SDS011;5522;42.696;23.494;2023-02-25T08:16:46;18.70;;;10.07;;
10939;SDS011;5522;42.696;23.494;2023-02-25T08:19:13;14.65;;;7.80;;
10939;SDS011;5522;42.696;23.494;2023-02-25T08:21:40;13.25;;;8.25;;
10939;SDS011;5522;42.696;23.494;2023-02-25T08:24:08;15.52;;;8.27;;
10939;SDS011;5522;42.696;23.494;2023-02-25T08:26:35;15.65;;;7.97;;
10939;SDS011;5522;42.696;23.494;2023-02-25T08:29:02;11.52;;;7.75;;
10939;SDS011;5522;42.696;23.494;2023-02-25T08:31:30;24.80;;;7.38;;
10939;SDS011;5522;42.696;23.494;2023-02-25T08:33:57;15.80;;;7.25;;
10939;SDS011;5522;42.696;23.494;2023-02-25T08:36:25;15.20;;;6.93;;
10939;SDS011;5522;42.696;23.494;2023-02-25T08:38:54;15.93;;;7.05;;
10939;SDS011;5522;42.696;23.494;2023-02-25T08:41:24;11.68;;;6.20;;
10939;SDS011;5522;42.696;23.494;2023-02-25T08:43:52;17.23;;;6.60;;
10939;SDS011;5522;42.696;23.494;2023-02-25T08:46:20;12.10;;;6.05;;
10939;SDS011;5522;42.696;23.494;2023-02-25T08:48:47;14.88;;;5.55;;
10939;SDS011;5522;42.696;23.494;2023-02-25T08:51:15;18.63;;;5.90;;
10939;SDS011;5522;42.696;23.494;2023-02-25T08:53:42;15.05;;;5.78;;
10939;SDS011;5522;42.696;23.494;2023-02-25T08:56:11;13.25;;;4.88;;
10939;SDS011;5522;42.696;23.494;2023-02-25T08:58:41;10.07;;;4.35;;
10939;SDS011;5522;42.696;23.494;2023-02-25T09:01:09;10.63;;;4.60;;
10939;SDS011;5522;42.696;23.494;2023-02-25T09:03:38;16.15;;;4.13;;
10939;SDS011;5522;42.696;23.494;2023-02-25T09:06:05;13.35;;;5.70;;
10939;SDS011;5522;42.696;23.494;2023-02-25T09:08:32;20.92;;;6.20;;
10939;SDS011;5522;42.696;23.494;2023-02-25T09:10:59;14.32;;;5.95;;
10939;SDS011;5522;42.696;23.494;2023-02-25T09:13:26;12.88;;;4.35;;
10939;SDS011;5522;42.696;23.494;2023-02-25T09:15:57;13.43;;;5.03;;
10939;SDS011;5522;42.696;23.494;2023-02-25T09:18:24;13.48;;;4.20;;
10939;SDS011;5522;42.696;23.494;2023-02-25T09:20:51;20.30;;;7.50;;
10939;SDS011;5522;42.696;23.494;2023-02-25T09:23:18;16.60;;;7.40;;
10939;SDS011;5522;42.696;23.494;2023-02-25T09:25:45;53.75;;;30.48;;
10939;SDS011;5522;42.696;23.494;2023-02-25T09:28:12;18.52;;;11.70;;
10939;SDS011;5522;42.696;23.494;2023-02-25T09:30:39;20.13;;;7.68;;
10939;SDS011;5522;42.696;23.494;2023-02-25T09:33:07;20.27;;;7.82;;
10939;SDS011;5522;42.696;23.494;2023-02-25T09:35:34;21.65;;;7.55;;
10939;SDS011;5522;42.696;23.494;2023-02-25T09:38:00;20.08;;;7.00;;
10939;SDS011;5522;42.696;23.494;2023-02-25T09:40:27;21.27;;;8.20;;
10939;SDS011;5522;42.696;23.494;2023-02-25T09:42:59;23.10;;;7.65;;
10939;SDS011;5522;42.696;23.494;2023-02-25T09:45:33;20.45;;;7.63;;
10939;SDS011;5522;42.696;23.494;2023-02-25T09:48:02;34.85;;;16.42;;
10939;SDS011;5522;42.696;23.494;2023-02-25T09:50:40;30.23;;;12.35;;
10939;SDS011;5522;42.696;23.494;2023-02-25T09:53:12;39.10;;;9.18;;
10939;SDS011;5522;42.696;23.494;2023-02-25T09:55:45;21.52;;;8.82;;
10939;SDS011;5522;42.696;23.494;2023-02-25T09:58:16;20.92;;;7.97;;
10939;SDS011;5522;42.696;23.494;2023-02-25T10:00:51;22.10;;;7.60;;
10939;SDS011;5522;42.696;23.494;2023-02-25T10:03:37;19.90;;;8.02;;
10939;SDS011;5522;42.696;23.494;2023-02-25T10:06:13;17.83;;;5.38;;
10939;SDS011;5522;42.696;23.494;2023-02-25T10:08:46;17.17;;;4.38;;
10939;SDS011;5522;42.696;23.494;2023-02-25T10:11:23;18.17;;;3.67;;
10939;SDS011;5522;42.696;23.494;2023-02-25T10:13:59;20.50;;;3.80;;
10939;SDS011;5522;42.696;23.494;2023-02-25T10:16:35;15.90;;;3.65;;
10939;SDS011;5522;42.696;23.494;2023-02-25T10:19:11;18.75;;;5.75;;
10939;SDS011;5522;42.696;23.494;2023-02-25T10:21:56;20.55;;;4.93;;
10939;SDS011;5522;42.696;23.494;2023-02-25T10:24:35;17.92;;;6.05;;
10939;SDS011;5522;42.696;23.494;2023-02-25T10:27:07;18.70;;;4.53;;
10939;SDS011;5522;42.696;23.494;2023-02-25T10:29:43;13.32;;;5.13;;
10939;SDS011;5522;42.696;23.494;2023-02-25T10:32:15;22.40;;;4.15;;
10939;SDS011;5522;42.696;23.494;2023-02-25T10:34:43;19.42;;;4.07;;
10939;SDS011;5522;42.696;23.494;2023-02-25T10:37:14;14.45;;;4.68;;
10939;SDS011;5522;42.696;23.494;2023-02-25T10:39:45;20.15;;;4.40;;
10939;SDS011;5522;42.696;23.494;2023-02-25T10:42:13;15.02;;;4.00;;
10939;SDS011;5522;42.696;23.494;2023-02-25T10:44:41;18.27;;;5.65;;
10939;SDS011;5522;42.696;23.494;2023-02-25T10:47:10;17.80;;;6.57;;
10939;SDS011;5522;42.696;23.494;2023-02-25T10:49:42;25.20;;;6.53;;
10939;SDS011;5522;42.696;23.494;2023-02-25T10:52:51;18.02;;;4.13;;
10939;SDS011;5522;42.696;23.494;2023-02-25T10:55:24;14.55;;;4.40;;
10939;SDS011;5522;42.696;23.494;2023-02-25T10:58:01;17.17;;;4.13;;
10939;SDS011;5522;42.696;23.494;2023-02-25T11:00:30;17.45;;;3.70;;
10939;SDS011;5522;42.696;23.494;2023-02-25T11:02:58;11.45;;;3.33;;
10939;SDS011;5522;42.696;23.494;2023-02-25T11:05:29;11.13;;;2.72;;
10939;SDS011;5522;42.696;23.494;2023-02-25T11:08:01;9.98;;;2.97;;
10939;SDS011;5522;42.696;23.494;2023-02-25T11:10:32;15.95;;;3.05;;
10939;SDS011;5522;42.696;23.494;2023-02-25T11:12:59;11.18;;;3.58;;
10939;SDS011;5522;42.696;23.494;2023-02-25T11:15:31;11.77;;;3.90;;
10939;SDS011;5522;42.696;23.494;2023-02-25T11:18:05;24.33;;;8.98;;
10939;SDS011;5522;42.696;23.494;2023-02-25T11:20:46;23.60;;;5.47;;
10939;SDS011;5522;42.696;23.494;2023-02-25T11:23:19;21.75;;;4.70;;
10939;SDS011;5522;42.696;23.494;2023-02-25T11:25:48;16.40;;;3.38;;
10939;SDS011;5522;42.696;23.494;2023-02-25T11:28:18;20.35;;;5.97;;
10939;SDS011;5522;42.696;23.494;2023-02-25T11:30:52;13.90;;;2.65;;
10939;SDS011;5522;42.696;23.494;2023-02-25T11:33:22;15.90;;;3.38;;
10939;SDS011;5522;42.696;23.494;2023-02-25T11:35:54;21.17;;;1.80;;
10939;SDS011;5522;42.696;23.494;2023-02-25T11:38:26;28.20;;;8.63;;
10939;SDS011;5522;42.696;23.494;2023-02-25T11:40:54;19.23;;;8.00;;
10939;SDS011;5522;42.696;23.494;2023-02-25T11:43:22;13.63;;;2.50;;
10939;SDS011;5522;42.696;23.494;2023-02-25T11:45:54;21.25;;;4.35;;
10939;SDS011;5522;42.696;23.494;2023-02-25T11:48:26;14.38;;;2.97;;
10939;SDS011;5522;42.696;23.494;2023-02-25T11:50:57;13.27;;;2.65;;
10939;SDS011;5522;42.696;23.494;2023-02-25T11:53:36;12.32;;;3.00;;
10939;SDS011;5522;42.696;23.494;2023-02-25T11:56:13;11.82;;;3.55;;
10939;SDS011;5522;42.696;23.494;2023-02-25T11:58:47;16.40;;;6.15;;
10939;SDS011;5522;42.696;23.494;2023-02-25T12:01:32;18.75;;;3.42;;
10939;SDS011;5522;42.696;23.494;2023-02-25T12:04:18;17.77;;;4.22;;
10939;SDS011;5522;42.696;23.494;2023-02-25T12:13:30;11.02;;;2.80;;
10939;SDS011;5522;42.696;23.494;2023-02-25T12:16:24;13.82;;;2.40;;
10939;SDS011;5522;42.696;23.494;2023-02-25T12:19:33;9.73;;;2.05;;
10939;SDS011;5522;42.696;23.494;2023-02-25T12:22:46;23.52;;;8.77;;
10939;SDS011;5522;42.696;23.494;2023-02-25T12:25:26;25.10;;;9.63;;
10939;SDS011;5522;42.696;23.494;2023-02-25T12:28:09;18.02;;;2.30;;
10939;SDS011;5522;42.696;23.494;2023-02-25T12:31:19;18.80;;;3.90;;
10939;SDS011;5522;42.696;23.494;2023-02-25T12:34:18;22.17;;;2.90;;
10939;SDS011;5522;42.696;23.494;2023-02-25T12:37:06;16.52;;;2.05;;
10939;SDS011;5522;42.696;23.494;2023-02-25T12:39:46;13.80;;;2.13;;
10939;SDS011;5522;42.696;23.494;2023-02-25T12:42:26;11.57;;;1.55;;
10939;SDS011;5522;42.696;23.494;2023-02-25T12:45:13;20.10;;;2.70;;
10939;SDS011;5522;42.696;23.494;2023-02-25T12:48:09;21.05;;;2.10;;
10939;SDS011;5522;42.696;23.494;2023-02-25T12:50:55;18.98;;;1.35;;
10939;SDS011;5522;42.696;23.494;2023-02-25T12:53:38;12.77;;;1.85;;
10939;SDS011;5522;42.696;23.494;2023-02-25T12:59:30;12.05;;;2.38;;
10939;SDS011;5522;42.696;23.494;2023-02-25T13:02:23;16.20;;;1.20;;
10939;SDS011;5522;42.696;23.494;2023-02-25T13:05:08;17.88;;;1.40;;
10939;SDS011;5522;42.696;23.494;2023-02-25T13:10:53;14.50;;;1.70;;
10939;SDS011;5522;42.696;23.494;2023-02-25T13:13:34;14.63;;;1.73;;
10939;SDS011;5522;42.696;23.494;2023-02-25T13:16:17;9.63;;;1.58;;
10939;SDS011;5522;42.696;23.494;2023-02-25T13:19:01;10.90;;;1.75;;
10939;SDS011;5522;42.696;23.494;2023-02-25T13:21:46;15.70;;;1.40;;
10939;SDS011;5522;42.696;23.494;2023-02-25T13:24:26;14.30;;;1.88;;
10939;SDS011;5522;42.696;23.494;2023-02-25T13:30:12;6.85;;;1.33;;
10939;SDS011;5522;42.696;23.494;2023-02-25T13:32:49;20.50;;;1.67;;
10939;SDS011;5522;42.696;23.494;2023-02-25T13:35:26;15.10;;;1.38;;
10939;SDS011;5522;42.696;23.494;2023-02-25T13:38:07;14.02;;;1.15;;
10939;SDS011;5522;42.696;23.494;2023-02-25T13:40:57;8.55;;;1.08;;
10939;SDS011;5522;42.696;23.494;2023-02-25T13:43:48;9.75;;;1.02;;
10939;SDS011;5522;42.696;23.494;2023-02-25T13:46:26;15.23;;;2.10;;
10939;SDS011;5522;42.696;23.494;2023-02-25T13:49:27;16.27;;;2.40;;
10939;SDS011;5522;42.696;23.494;2023-02-25T13:52:14;14.00;;;2.40;;
10939;SDS011;5522;42.696;23.494;2023-02-25T13:55:03;15.75;;;2.90;;
10939;SDS011;5522;42.696;23.494;2023-02-25T13:57:52;9.55;;;1.10;;
10939;SDS011;5522;42.696;23.494;2023-02-25T14:06:45;21.38;;;9.25;;
10939;SDS011;5522;42.696;23.494;2023-02-25T14:09:34;22.67;;;3.53;;
10939;SDS011;5522;42.696;23.494;2023-02-25T14:12:13;15.23;;;2.42;;
10939;SDS011;5522;42.696;23.494;2023-02-25T14:14:55;18.63;;;7.38;;
10939;SDS011;5522;42.696;23.494;2023-02-25T14:17:41;13.63;;;4.28;;
10939;SDS011;5522;42.696;23.494;2023-02-25T14:20:19;16.10;;;1.83;;
10939;SDS011;5522;42.696;23.494;2023-02-25T14:22:58;9.73;;;1.45;;
10939;SDS011;5522;42.696;23.494;2023-02-25T14:25:36;17.58;;;1.50;;
10939;SDS011;5522;42.696;23.494;2023-02-25T14:28:12;12.40;;;1.30;;
10939;SDS011;5522;42.696;23.494;2023-02-25T14:30:50;16.52;;;1.92;;
10939;SDS011;5522;42.696;23.494;2023-02-25T14:33:33;15.20;;;1.10;;
10939;SDS011;5522;42.696;23.494;2023-02-25T14:36:12;10.02;;;1.80;;
10939;SDS011;5522;42.696;23.494;2023-02-25T14:39:05;9.73;;;0.88;;
10939;SDS011;5522;42.696;23.494;2023-02-25T14:41:50;11.50;;;1.48;;
10939;SDS011;5522;42.696;23.494;2023-02-25T14:44:28;11.65;;;1.33;;
10939;SDS011;5522;42.696;23.494;2023-02-25T14:47:04;8.50;;;0.98;;
10939;SDS011;5522;42.696;23.494;2023-02-25T14:49:36;13.98;;;1.60;;
10939;SDS011;5522;42.696;23.494;2023-02-25T14:52:15;11.40;;;1.48;;
10939;SDS011;5522;42.696;23.494;2023-02-25T14:58:05;13.98;;;0.90;;
10939;SDS011;5522;42.696;23.494;2023-02-25T15:03:53;11.32;;;1.23;;
10939;SDS011;5522;42.696;23.494;2023-02-25T15:06:49;20.42;;;2.60;;
10939;SDS011;5522;42.696;23.494;2023-02-25T15:09:31;9.65;;;0.95;;
10939;SDS011;5522;42.696;23.494;2023-02-25T15:18:52;9.43;;;1.52;;
10939;SDS011;5522;42.696;23.494;2023-02-25T15:21:34;20.52;;;1.73;;
10939;SDS011;5522;42.696;23.494;2023-02-25T15:24:06;22.38;;;2.40;;
10939;SDS011;5522;42.696;23.494;2023-02-25T15:26:39;12.77;;;1.63;;
10939;SDS011;5522;42.696;23.494;2023-02-25T15:29:20;20.40;;;1.20;;
10939;SDS011;5522;42.696;23.494;2023-02-25T15:32:44;18.50;;;1.83;;
10939;SDS011;5522;42.696;23.494;2023-02-25T15:35:22;14.68;;;1.50;;
10939;SDS011;5522;42.696;23.494;2023-02-25T15:38:10;14.57;;;1.80;;
10939;SDS011;5522;42.696;23.494;2023-02-25T15:40:44;13.98;;;1.48;;
10939;SDS011;5522;42.696;23.494;2023-02-25T15:43:36;18.60;;;1.27;;